Time;durP1;ratioP1;P1;durP2;ratioP2;P2;SDS_P1;SDS_P2;PMS_P1;PMS_P2;Temp;Humidity;BMP_temperature;BMP_pressure;BME280_temperature;BME280_humidity;BME280_pressure;Samples;Min_cycle;Max_cycle;Signal;HPM_P1;HPM_P2
2022/07/29 00:00:40;;;;;;;4.30;1.45;;;15.30;99.90;;;;;;5013710;28;20073;-84
2022/07/29 00:03:06;;;;;;;3.63;1.63;;;15.30;99.90;;;;;;5014212;28;20088;-83
2022/07/29 00:05:31;;;;;;;2.53;1.65;;;15.40;99.90;;;;;;5016665;28;20468;-83
2022/07/29 00:07:57;;;;;;;3.38;1.90;;;15.30;99.90;;;;;;5026688;28;20049;-83
2022/07/29 00:10:23;;;;;;;2.80;1.70;;;15.40;99.90;;;;;;5022522;28;20058;-84
2022/07/29 00:12:48;;;;;;;3.30;1.70;;;15.50;99.90;;;;;;5017368;28;20148;-83
2022/07/29 00:15:14;;;;;;;1.95;1.25;;;15.20;99.90;;;;;;5016808;28;20076;-83
2022/07/29 00:17:40;;;;;;;3.00;1.73;;;15.20;99.90;;;;;;5016615;28;20076;-88
2022/07/29 00:20:06;;;;;;;1.40;1.30;;;15.40;99.90;;;;;;5015921;28;20465;-84
2022/07/29 00:22:32;;;;;;;2.85;1.75;;;15.40;99.90;;;;;;5019705;28;20058;-85
2022/07/29 00:24:57;;;;;;;2.30;2.10;;;15.30;99.90;;;;;;5037785;28;20030;-87
2022/07/29 00:27:23;;;;;;;2.83;1.70;;;15.30;99.90;;;;;;5036230;28;20046;-85
2022/07/29 00:29:49;;;;;;;3.08;1.83;;;15.30;99.90;;;;;;5032055;28;20095;-85
2022/07/29 00:32:15;;;;;;;2.17;1.67;;;15.20;99.90;;;;;;5017421;28;20049;-84
2022/07/29 00:37:24;;;;;;;3.47;2.33;;;15.20;99.90;;;;;;5014331;28;20108;-84
2022/07/29 00:39:50;;;;;;;3.13;1.85;;;15.30;99.90;;;;;;5016599;28;20042;-84
2022/07/29 00:42:16;;;;;;;2.03;1.80;;;15.20;99.90;;;;;;5019567;28;20077;-83
2022/07/29 00:44:42;;;;;;;2.90;1.88;;;15.10;99.90;;;;;;5027092;28;20033;-82
2022/07/29 00:47:08;;;;;;;1.90;1.73;;;15.20;99.90;;;;;;5031420;28;20073;-83
2022/07/29 00:49:34;;;;;;;3.30;1.90;;;15.40;99.90;;;;;;5018665;28;20058;-84
2022/07/29 00:52:04;;;;;;;5.35;3.05;;;15.40;99.90;;;;;;4998002;28;20046;-84
2022/07/29 00:54:30;;;;;;;3.75;1.98;;;15.40;99.90;;;;;;5015833;28;20041;-84
2022/07/29 00:56:59;;;;;;;1.70;1.60;;;15.20;99.90;;;;;;5020107;28;20385;-84
2022/07/29 00:59:26;;;;;;;2.25;1.70;;;15.20;99.90;;;;;;5020384;28;20081;-85
2022/07/29 01:01:52;;;;;;;5.10;2.03;;;15.20;99.90;;;;;;5022602;28;20074;-83
2022/07/29 01:04:18;;;;;;;3.47;1.55;;;15.20;99.90;;;;;;5021526;28;20049;-84
2022/07/29 01:06:43;;;;;;;2.03;1.73;;;15.30;99.90;;;;;;5003885;28;20053;-84
2022/07/29 01:09:09;;;;;;;2.40;1.75;;;15.40;99.90;;;;;;5020301;28;20052;-84
2022/07/29 01:11:35;;;;;;;5.50;2.13;;;15.20;99.90;;;;;;5020336;28;20054;-85
2022/07/29 01:14:01;;;;;;;1.95;1.70;;;15.30;99.90;;;;;;5019715;28;20097;-85
2022/07/29 01:16:37;;;;;;;2.85;2.00;;;15.30;99.90;;;;;;5018079;28;20045;-84
2022/07/29 01:19:34;;;;;;;2.80;1.77;;;15.30;99.90;;;;;;5003977;28;20052;-84
2022/07/29 01:22:01;;;;;;;2.50;1.75;;;15.30;99.90;;;;;;5016729;28;20057;-82
2022/07/29 01:24:39;;;;;;;2.80;1.45;;;15.30;99.90;;;;;;5001620;28;20093;-83
2022/07/29 01:27:24;;;;;;;1.52;1.42;;;15.30;99.90;;;;;;4986527;28;20042;-84
2022/07/29 01:29:54;;;;;;;1.85;1.60;;;15.40;99.90;;;;;;5001824;28;20665;-84
2022/07/29 01:32:21;;;;;;;1.95;1.80;;;15.40;99.90;;;;;;5000260;28;20050;-84
2022/07/29 01:35:04;;;;;;;2.25;1.80;;;15.40;99.90;;;;;;4999312;28;20057;-83
2022/07/29 01:37:38;;;;;;;2.38;1.60;;;15.50;99.90;;;;;;4997434;28;20407;-84
2022/07/29 01:40:07;;;;;;;1.38;1.33;;;15.40;99.90;;;;;;5001021;28;20054;-84
2022/07/29 01:42:43;;;;;;;1.90;1.70;;;15.50;99.90;;;;;;4999731;28;20551;-84
2022/07/29 01:45:17;;;;;;;3.33;1.50;;;15.30;99.90;;;;;;4999507;28;20050;-84
2022/07/29 01:48:02;;;;;;;;;;;15.30;99.90;;;;;;5006868;28;20084;-86
2022/07/29 01:50:34;;;;;;;1.67;1.48;;;15.40;99.90;;;;;;5019519;28;19968;-85
2022/07/29 01:53:01;;;;;;;2.55;1.50;;;15.20;99.90;;;;;;5015486;28;20044;-83
2022/07/29 01:55:32;;;;;;;2.28;1.42;;;15.30;99.90;;;;;;4992192;28;20053;-83
2022/07/29 01:57:58;;;;;;;4.80;2.15;;;15.30;99.90;;;;;;4995754;28;20054;-84
2022/07/29 02:00:24;;;;;;;2.53;1.63;;;15.40;99.90;;;;;;4996274;28;20050;-83
2022/07/29 02:02:50;;;;;;;3.38;2.22;;;15.20;99.90;;;;;;4998031;28;20053;-83
2022/07/29 02:05:17;;;;;;;1.85;1.33;;;15.10;99.90;;;;;;5006263;28;20040;-87
2022/07/29 02:07:43;;;;;;;1.90;1.63;;;15.20;99.90;;;;;;5019830;28;20041;-86
2022/07/29 02:10:09;;;;;;;1.98;1.63;;;15.10;99.90;;;;;;5007272;28;20050;-85
2022/07/29 02:12:35;;;;;;;2.22;1.45;;;15.10;99.90;;;;;;4996060;28;20054;-84
2022/07/29 02:15:01;;;;;;;2.67;1.50;;;15.20;99.90;;;;;;4995797;28;20049;-84
2022/07/29 02:17:39;;;;;;;3.03;1.70;;;15.40;99.90;;;;;;5014873;28;20076;-86
2022/07/29 02:20:05;;;;;;;4.30;1.60;;;15.40;99.90;;;;;;5030259;28;20065;-86
2022/07/29 02:22:31;;;;;;;3.63;1.40;;;15.20;99.90;;;;;;5029520;28;20115;-84
2022/07/29 02:24:58;;;;;;;3.25;1.63;;;15.20;99.90;;;;;;5026851;28;20046;-86
2022/07/29 02:27:24;;;;;;;3.50;1.90;;;15.40;99.90;;;;;;5030639;28;20054;-85
2022/07/29 02:29:50;;;;;;;2.75;1.20;;;15.30;99.90;;;;;;5028794;28;20125;-85
2022/07/29 02:32:16;;;;;;;3.15;1.35;;;15.50;99.90;;;;;;5028673;28;20046;-83
2022/07/29 02:34:41;;;;;;;5.60;1.27;;;15.40;99.90;;;;;;5029686;28;20057;-84
2022/07/29 02:37:09;;;;;;;2.50;1.45;;;15.50;99.90;;;;;;5009001;28;20050;-85
2022/07/29 02:39:34;;;;;;;4.82;1.58;;;15.40;99.90;;;;;;5029061;28;20046;-84
2022/07/29 02:42:05;;;;;;;4.28;1.60;;;15.40;99.90;;;;;;5029190;28;20052;-84
2022/07/29 02:44:32;;;;;;;4.82;1.45;;;15.30;99.90;;;;;;5027003;28;20073;-85
2022/07/29 02:47:15;;;;;;;2.80;1.63;;;15.30;99.90;;;;;;5028922;28;20057;-86
2022/07/29 02:49:59;;;;;;;2.22;1.58;;;15.30;99.90;;;;;;5011370;28;20053;-85
2022/07/29 02:52:34;;;;;;;2.90;1.38;;;15.30;99.90;;;;;;5028390;28;20053;-85
2022/07/29 02:55:04;;;;;;;3.92;1.40;;;15.30;99.90;;;;;;5025946;28;20089;-85
2022/07/29 02:58:00;;;;;;;4.32;1.40;;;15.40;99.90;;;;;;5028277;28;20458;-84
2022/07/29 03:00:31;;;;;;;2.95;1.50;;;15.40;99.90;;;;;;5019196;28;20101;-85
2022/07/29 03:02:59;;;;;;;3.05;1.08;;;15.30;99.90;;;;;;5027191;28;20052;-84
2022/07/29 03:05:24;;;;;;;4.90;1.67;;;15.30;99.90;;;;;;5027159;28;20128;-86
2022/07/29 03:07:55;;;;;;;2.40;1.50;;;15.40;99.90;;;;;;5026694;28;20054;-84
2022/07/29 03:10:21;;;;;;;1.90;1.60;;;15.50;99.90;;;;;;5026831;28;20137;-84
2022/07/29 03:12:48;;;;;;;2.55;1.67;;;15.30;99.90;;;;;;5039114;28;20033;-84
2022/07/29 03:15:13;;;;;;;3.92;1.80;;;15.30;99.90;;;;;;5036965;28;20387;-85
2022/07/29 03:17:39;;;;;;;3.03;1.90;;;15.20;99.90;;;;;;5032672;28;20032;-84
2022/07/29 03:20:06;;;;;;;3.28;2.05;;;15.10;99.90;;;;;;5019382;28;20054;-84
2022/07/29 03:22:32;;;;;;;2.28;1.83;;;15.10;99.90;;;;;;5021732;28;20049;-85
2022/07/29 03:24:57;;;;;;;2.67;1.70;;;15.20;99.90;;;;;;5007845;28;20046;-83
2022/07/29 03:27:23;;;;;;;3.53;1.50;;;15.10;99.90;;;;;;5038885;28;20049;-85
2022/07/29 03:29:49;;;;;;;4.88;1.88;;;15.10;99.90;;;;;;5016835;28;20045;-84
2022/07/29 03:32:14;;;;;;;1.63;1.52;;;15.20;99.90;;;;;;5017062;28;20054;-84
2022/07/29 03:34:40;;;;;;;3.63;1.70;;;15.10;99.90;;;;;;5017794;28;20080;-84
2022/07/29 03:37:06;;;;;;;3.35;1.70;;;15.10;99.90;;;;;;5017699;28;20057;-85
2022/07/29 03:39:35;;;;;;;4.80;1.60;;;15.00;99.90;;;;;;5016699;28;20057;-84
2022/07/29 03:42:00;;;;;;;1.77;1.67;;;15.20;99.90;;;;;;5002793;28;20054;-85
2022/07/29 03:44:26;;;;;;;8.23;1.77;;;15.40;99.90;;;;;;5019320;28;20081;-84
2022/07/29 03:46:52;;;;;;;1.73;1.55;;;15.30;99.90;;;;;;5016860;28;20057;-84
2022/07/29 03:49:18;;;;;;;2.67;1.77;;;15.20;99.90;;;;;;4999390;28;20037;-84
2022/07/29 03:51:44;;;;;;;5.13;1.52;;;15.10;99.90;;;;;;5015742;28;20049;-85
2022/07/29 03:54:10;;;;;;;2.35;1.60;;;14.90;99.90;;;;;;5014043;28;20128;-84
2022/07/29 03:56:38;;;;;;;5.15;2.00;;;14.80;99.90;;;;;;5014402;28;20046;-85
2022/07/29 03:59:04;;;;;;;2.67;1.77;;;15.10;99.90;;;;;;5014633;28;20041;-84
2022/07/29 04:01:36;;;;;;;2.58;2.03;;;15.00;99.90;;;;;;5014617;28;20468;-85
2022/07/29 04:04:02;;;;;;;2.40;1.67;;;15.00;99.90;;;;;;4998267;28;20053;-84
2022/07/29 04:06:27;;;;;;;4.95;1.80;;;15.10;99.90;;;;;;5014592;28;20045;-84
2022/07/29 04:08:53;;;;;;;2.42;1.77;;;15.10;99.90;;;;;;5015616;28;20120;-84
2022/07/29 04:11:24;;;;;;;1.98;1.77;;;14.80;99.90;;;;;;5015075;28;20540;-84
2022/07/29 04:13:50;;;;;;;5.88;1.77;;;14.70;99.90;;;;;;5013307;28;20045;-84
2022/07/29 04:16:15;;;;;;;4.18;1.80;;;14.70;99.90;;;;;;5013841;28;20046;-84
2022/07/29 04:18:41;;;;;;;2.38;2.00;;;14.70;99.90;;;;;;5013722;28;20196;-85
2022/07/29 04:21:07;;;;;;;4.07;1.88;;;14.70;99.90;;;;;;5013240;28;20103;-84
2022/07/29 04:23:33;;;;;;;1.85;1.75;;;14.80;99.90;;;;;;5002869;28;20049;-85
2022/07/29 04:26:00;;;;;;;6.50;2.00;;;14.90;99.90;;;;;;5032643;28;20038;-84
2022/07/29 04:28:25;;;;;;;3.97;1.83;;;14.90;99.90;;;;;;5020093;28;20042;-85
2022/07/29 04:30:52;;;;;;;5.10;2.05;;;14.90;99.90;;;;;;5023889;28;20054;-85
2022/07/29 04:33:18;;;;;;;2.88;2.00;;;15.00;99.90;;;;;;5024374;28;20498;-85
2022/07/29 04:35:43;;;;;;;2.15;1.73;;;14.90;99.90;;;;;;5037540;28;20117;-86
2022/07/29 04:38:09;;;;;;;6.05;1.70;;;14.90;99.90;;;;;;5035154;28;20050;-86
2022/07/29 04:40:35;;;;;;;4.75;1.90;;;14.70;99.90;;;;;;5031070;28;20073;-84
2022/07/29 04:43:00;;;;;;;4.63;1.77;;;15.00;99.90;;;;;;5019190;28;20046;-84
2022/07/29 04:45:27;;;;;;;2.13;1.90;;;14.90;99.90;;;;;;5017184;28;20119;-83
2022/07/29 04:47:53;;;;;;;3.38;2.00;;;14.80;99.90;;;;;;5036852;28;20053;-87
2022/07/29 04:50:18;;;;;;;2.75;2.08;;;14.90;99.90;;;;;;5015019;28;20042;-84
2022/07/29 04:52:44;;;;;;;3.00;1.63;;;15.00;99.90;;;;;;5018419;28;20072;-84
2022/07/29 04:55:10;;;;;;;4.68;1.95;;;15.00;99.90;;;;;;5014821;28;20056;-84
2022/07/29 04:57:35;;;;;;;7.07;2.10;;;14.90;99.90;;;;;;5015189;28;20042;-83
2022/07/29 05:00:01;;;;;;;5.50;2.75;;;14.90;99.90;;;;;;5013887;28;20364;-84
2022/07/29 05:02:27;;;;;;;6.85;3.40;;;15.10;99.90;;;;;;5013665;28;20477;-85
2022/07/29 05:04:53;;;;;;;5.03;2.10;;;15.10;99.90;;;;;;5014842;28;20050;-86
2022/07/29 05:07:19;;;;;;;4.57;2.15;;;14.80;99.90;;;;;;5014117;28;20064;-85
2022/07/29 05:09:44;;;;;;;3.75;1.95;;;15.00;99.90;;;;;;4995850;28;20056;-85
2022/07/29 05:12:10;;;;;;;3.10;1.80;;;15.10;99.90;;;;;;5013323;28;20046;-85
2022/07/29 05:14:36;;;;;;;3.00;1.83;;;15.30;99.90;;;;;;5013509;28;20053;-84
2022/07/29 05:17:01;;;;;;;2.63;1.80;;;15.20;99.90;;;;;;5013217;28;20393;-84
2022/07/29 05:19:27;;;;;;;4.30;2.00;;;15.00;99.90;;;;;;5013048;28;20050;-84
2022/07/29 05:21:53;;;;;;;2.20;1.77;;;15.40;99.90;;;;;;5012836;28;20054;-85
2022/07/29 05:24:18;;;;;;;4.38;2.30;;;15.30;99.90;;;;;;5013142;28;20056;-85
2022/07/29 05:26:44;;;;;;;4.53;2.08;;;15.40;99.90;;;;;;5012805;28;20077;-85
2022/07/29 05:29:11;;;;;;;4.00;2.40;;;15.40;99.90;;;;;;4996813;28;20056;-85
2022/07/29 05:31:36;;;;;;;4.32;2.25;;;15.30;99.90;;;;;;5013557;28;20049;-84
2022/07/29 05:34:07;;;;;;;3.72;2.20;;;15.50;99.90;;;;;;5011876;28;20057;-84
2022/07/29 05:36:33;;;;;;;4.40;2.08;;;15.60;99.90;;;;;;5012927;28;20054;-84
2022/07/29 05:38:59;;;;;;;4.43;2.70;;;15.50;99.90;;;;;;5013194;28;20061;-84
2022/07/29 05:41:24;;;;;;;2.50;2.10;;;15.40;99.90;;;;;;5011590;28;20393;-85
2022/07/29 05:43:50;;;;;;;4.18;2.00;;;15.30;99.90;;;;;;5012962;28;20461;-84
2022/07/29 05:46:16;;;;;;;3.78;1.95;;;15.60;99.90;;;;;;5013200;28;20052;-84
2022/07/29 05:48:47;;;;;;;3.92;2.10;;;15.60;99.90;;;;;;5013204;28;20109;-84
2022/07/29 05:51:13;;;;;;;2.90;1.90;;;15.70;99.90;;;;;;5013092;28;20096;-84
2022/07/29 05:53:39;;;;;;;3.58;2.00;;;15.60;99.90;;;;;;5013033;28;20398;-84
2022/07/29 05:56:05;;;;;;;2.47;2.10;;;15.60;99.90;;;;;;5014729;28;20054;-85
2022/07/29 05:58:31;;;;;;;2.83;2.10;;;15.60;99.90;;;;;;5019603;28;20034;-87
2022/07/29 06:00:59;;;;;;;3.85;1.80;;;15.80;99.90;;;;;;5037322;28;20044;-84
2022/07/29 06:03:25;;;;;;;2.10;1.58;;;15.90;99.90;;;;;;5035833;28;20076;-84
2022/07/29 06:05:50;;;;;;;3.15;2.22;;;15.90;99.90;;;;;;5031783;28;20490;-88
2022/07/29 06:08:17;;;;;;;1.50;1.40;;;15.80;99.90;;;;;;5040337;28;20057;-87
2022/07/29 06:10:43;;;;;;;4.00;1.88;;;15.80;99.90;;;;;;5031449;28;20057;-84
2022/07/29 06:13:09;;;;;;;4.38;2.30;;;15.80;99.90;;;;;;5016717;28;20041;-83
2022/07/29 06:15:35;;;;;;;2.70;1.73;;;15.70;99.90;;;;;;5015541;28;20046;-86
2022/07/29 06:18:01;;;;;;;3.28;2.33;;;15.80;99.90;;;;;;5015431;28;20349;-84
2022/07/29 06:20:30;;;;;;;3.25;2.08;;;15.90;99.90;;;;;;4998522;28;20050;-84
2022/07/29 06:22:56;;;;;;;3.13;2.00;;;16.00;99.90;;;;;;5015546;28;20406;-83
2022/07/29 06:25:21;;;;;;;2.65;2.13;;;16.10;99.90;;;;;;5015377;28;20049;-85
2022/07/29 06:27:47;;;;;;;4.00;2.60;;;16.30;99.90;;;;;;5015499;28;20046;-84
2022/07/29 06:30:13;;;;;;;4.25;2.60;;;16.30;99.90;;;;;;5001147;28;20184;-87
2022/07/29 06:32:39;;;;;;;3.33;2.25;;;16.30;99.90;;;;;;5021542;28;20065;-85
2022/07/29 06:35:05;;;;;;;3.65;2.30;;;16.30;99.90;;;;;;5005687;28;20057;-84
2022/07/29 06:37:31;;;;;;;3.80;1.85;;;16.40;99.90;;;;;;5017741;28;20073;-85
2022/07/29 06:42:44;;;;;;;6.20;2.55;;;16.70;99.90;;;;;;5003113;28;20068;-84
2022/07/29 06:45:10;;;;;;;5.47;2.15;;;16.80;99.90;;;;;;5016310;28;20478;-84
2022/07/29 06:47:36;;;;;;;6.22;2.20;;;16.90;99.90;;;;;;5017156;28;20071;-84
2022/07/29 06:50:02;;;;;;;3.10;2.00;;;17.10;99.90;;;;;;5016040;28;20474;-83
2022/07/29 06:52:28;;;;;;;3.35;1.95;;;16.80;99.90;;;;;;5017142;28;20406;-84
2022/07/29 06:54:54;;;;;;;4.68;2.03;;;16.90;99.90;;;;;;5017598;28;20406;-84
2022/07/29 06:57:21;;;;;;;3.75;2.08;;;16.80;99.90;;;;;;5015240;28;20508;-84
2022/07/29 06:59:47;;;;;;;4.75;2.03;;;16.70;99.90;;;;;;4997899;28;20088;-85
2022/07/29 07:02:12;;;;;;;3.33;1.98;;;16.70;99.90;;;;;;5014909;28;20490;-85
2022/07/29 07:04:38;;;;;;;4.72;1.85;;;16.70;99.90;;;;;;5014315;28;20060;-85
2022/07/29 07:07:04;;;;;;;6.13;2.13;;;16.40;99.90;;;;;;5015670;28;20123;-84
2022/07/29 07:09:30;;;;;;;3.10;1.90;;;16.60;99.90;;;;;;5017548;28;20449;-84
2022/07/29 07:11:55;;;;;;;4.00;2.20;;;16.60;99.90;;;;;;5016830;28;20128;-83
2022/07/29 07:14:21;;;;;;;4.22;1.73;;;16.70;99.90;;;;;;5025762;28;20098;-84
2022/07/29 07:16:47;;;;;;;3.67;1.90;;;17.00;99.90;;;;;;5033107;28;20046;-85
2022/07/29 07:19:13;;;;;;;2.20;1.52;;;16.90;99.90;;;;;;5037927;28;20033;-89
2022/07/29 07:21:38;;;;;;;4.72;2.47;;;17.10;99.90;;;;;;5038329;28;20148;-90
2022/07/29 07:24:04;;;;;;;3.92;2.05;;;16.90;99.90;;;;;;5039013;28;20404;-87
2022/07/29 07:26:30;;;;;;;4.10;2.10;;;16.90;99.90;;;;;;5038350;28;20029;-87
2022/07/29 07:28:56;;;;;;;5.82;2.08;;;17.10;99.90;;;;;;5038182;28;20038;-88
2022/07/29 07:31:22;;;;;;;3.17;1.90;;;17.20;99.90;;;;;;5020109;28;20029;-84
2022/07/29 07:33:47;;;;;;;3.53;2.00;;;17.30;99.90;;;;;;5026219;28;20104;-85
2022/07/29 07:36:13;;;;;;;4.47;2.00;;;17.10;99.90;;;;;;5025703;28;20046;-84
2022/07/29 07:38:39;;;;;;;4.80;2.50;;;17.00;99.90;;;;;;5022845;28;20042;-85
2022/07/29 07:41:04;;;;;;;2.75;2.00;;;17.00;99.90;;;;;;5008164;28;20453;-84
2022/07/29 07:43:30;;;;;;;3.30;2.28;;;17.10;99.90;;;;;;5025568;28;20093;-85
2022/07/29 07:45:56;;;;;;;2.53;1.85;;;17.10;99.90;;;;;;5023679;28;20058;-85
2022/07/29 07:48:21;;;;;;;2.33;2.00;;;17.30;99.90;;;;;;5023256;28;20104;-84
2022/07/29 07:50:49;;;;;;;5.63;2.33;;;17.50;99.90;;;;;;5022336;28;20045;-83
2022/07/29 07:53:14;;;;;;;4.68;2.00;;;17.60;99.90;;;;;;5021939;28;20053;-84
2022/07/29 07:55:41;;;;;;;3.00;1.98;;;17.80;99.90;;;;;;5021168;28;20053;-85
2022/07/29 07:58:06;;;;;;;2.58;2.05;;;18.10;99.90;;;;;;5016395;28;20046;-83
2022/07/29 08:00:32;;;;;;;3.30;2.30;;;18.10;99.90;;;;;;5015205;28;20092;-86
2022/07/29 08:02:58;;;;;;;4.63;2.40;;;18.00;99.90;;;;;;5021011;28;20048;-84
2022/07/29 08:05:23;;;;;;;6.63;2.15;;;17.90;99.90;;;;;;5022761;28;20447;-85
2022/07/29 08:07:49;;;;;;;6.78;2.20;;;17.90;99.90;;;;;;5023062;28;20048;-83
2022/07/29 08:10:51;;;;;;;4.22;2.13;;;18.30;99.90;;;;;;5019493;28;20044;-85
2022/07/29 08:13:11;;;;;;;2.92;1.90;;;18.40;99.90;;;;;;5016509;28;20409;-85
2022/07/29 08:15:38;;;;;;;5.55;2.40;;;18.50;99.90;;;;;;5002508;28;20081;-84
2022/07/29 08:18:04;;;;;;;4.15;2.53;;;18.40;99.90;;;;;;5016426;28;20073;-83
2022/07/29 08:20:31;;;;;;;3.72;2.20;;;18.70;99.90;;;;;;5014694;28;20096;-84
2022/07/29 08:22:57;;;;;;;3.78;2.75;;;18.70;99.90;;;;;;5013299;28;20453;-85
2022/07/29 08:25:23;;;;;;;2.97;2.13;;;18.50;99.90;;;;;;5011891;28;20077;-86
2022/07/29 08:27:48;;;;;;;4.78;2.22;;;18.70;99.90;;;;;;5013268;28;20601;-85
2022/07/29 08:30:14;;;;;;;4.75;2.25;;;18.80;99.90;;;;;;5012806;28;20096;-86
2022/07/29 08:32:40;;;;;;;4.85;2.50;;;18.60;99.90;;;;;;5012675;28;20045;-86
2022/07/29 08:35:06;;;;;;;3.22;2.30;;;18.50;99.90;;;;;;5014023;28;20038;-85
2022/07/29 08:37:32;;;;;;;5.07;2.33;;;18.70;99.90;;;;;;5013291;28;20068;-87
2022/07/29 08:39:58;;;;;;;2.20;1.90;;;18.60;99.90;;;;;;5032395;28;20063;-89
2022/07/29 08:42:23;;;;;;;4.93;2.30;;;18.70;99.90;;;;;;5037137;28;20034;-91
2022/07/29 08:44:50;;;;;;;5.03;2.53;;;18.30;99.90;;;;;;5036882;28;20065;-87
2022/07/29 08:47:16;;;;;;;4.45;2.78;;;18.00;99.90;;;;;;5035862;28;20034;-88
2022/07/29 08:49:41;;;;;;;6.70;2.53;;;18.10;99.90;;;;;;5036345;28;20042;-91
2022/07/29 08:52:07;;;;;;;4.20;2.20;;;18.30;99.90;;;;;;5036243;28;20300;-86
2022/07/29 08:54:33;;;;;;;6.03;2.45;;;18.40;99.90;;;;;;5029489;28;20045;-88
2022/07/29 08:56:58;;;;;;;5.75;2.28;;;18.40;99.90;;;;;;5002698;28;20037;-85
2022/07/29 08:59:26;;;;;;;3.83;2.03;;;18.40;99.90;;;;;;5016036;28;20038;-83
2022/07/29 09:01:53;;;;;;;3.63;2.55;;;18.40;99.90;;;;;;5011969;28;20479;-83
2022/07/29 09:04:18;;;;;;;5.63;2.78;;;18.30;99.90;;;;;;5016370;28;20041;-86
2022/07/29 09:06:46;;;;;;;5.15;2.55;;;18.40;99.90;;;;;;5019618;28;20034;-85
2022/07/29 09:09:13;;;;;;;6.80;2.75;;;18.20;99.90;;;;;;5017018;28;20140;-84
2022/07/29 09:11:40;;;;;;;5.40;2.47;;;18.30;99.90;;;;;;5015871;28;20045;-87
2022/07/29 09:14:07;;;;;;;4.38;2.38;;;18.40;99.90;;;;;;5016050;28;20050;-84
2022/07/29 09:16:52;;;;;;;6.38;2.45;;;18.60;99.90;;;;;;4996618;28;20132;-84
2022/07/29 09:19:22;;;;;;;3.95;2.40;;;18.60;99.90;;;;;;5018618;28;20052;-85
2022/07/29 09:22:00;;;;;;;5.80;2.63;;;18.90;99.90;;;;;;5017151;28;20054;-89
2022/07/29 09:24:41;;;;;;;7.90;2.70;;;19.10;99.90;;;;;;5016788;28;20771;-84
2022/07/29 09:27:28;;;;;;;5.28;2.80;;;19.30;99.90;;;;;;5013757;28;20054;-84
2022/07/29 09:30:14;;;;;;;7.15;2.92;;;19.20;99.90;;;;;;5003159;28;20058;-85
2022/07/29 09:32:56;;;;;;;4.97;2.78;;;19.10;99.90;;;;;;4995424;28;20054;-85
2022/07/29 09:35:23;;;;;;;5.47;2.65;;;19.40;99.90;;;;;;5012220;28;20130;-84
2022/07/29 09:37:49;;;;;;;3.92;2.58;;;19.30;99.90;;;;;;5018430;28;20033;-84
2022/07/29 09:40:19;;;;;;;5.32;2.70;;;18.60;99.90;;;;;;4995392;28;20397;-85
2022/07/29 09:42:45;;;;;;;4.90;2.65;;;19.20;99.90;;;;;;5009916;28;20045;-84
2022/07/29 09:45:11;;;;;;;4.28;2.55;;;18.90;99.90;;;;;;5011708;28;20058;-84
2022/07/29 09:47:41;;;;;;;8.45;3.15;;;19.10;99.90;;;;;;5013711;28;20049;-87
2022/07/29 09:50:07;;;;;;;7.28;2.83;;;19.30;99.90;;;;;;5009596;28;20149;-86
2022/07/29 09:52:41;;;;;;;5.45;3.08;;;19.40;99.90;;;;;;5014747;28;20073;-85
2022/07/29 09:55:08;;;;;;;6.03;3.40;;;19.50;99.90;;;;;;5012509;28;20397;-85
2022/07/29 09:57:33;;;;;;;5.47;2.70;;;19.40;99.90;;;;;;5012060;28;20498;-85
2022/07/29 10:00:08;;;;;;;6.32;2.67;;;19.20;99.90;;;;;;5012344;28;20038;-84
2022/07/29 10:02:34;;;;;;;5.57;2.78;;;19.30;99.90;;;;;;5011084;28;20061;-84
2022/07/29 10:05:01;;;;;;;7.25;3.25;;;19.20;99.90;;;;;;5019101;28;20053;-86
2022/07/29 10:07:27;;;;;;;5.95;2.92;;;19.20;99.90;;;;;;5010298;28;20532;-87
2022/07/29 10:09:56;;;;;;;4.28;3.00;;;19.30;99.90;;;;;;5035179;28;20063;-91
2022/07/29 10:12:21;;;;;;;4.15;3.10;;;19.20;99.90;;;;;;5034840;28;20072;-85
2022/07/29 10:14:47;;;;;;;4.22;2.53;;;19.40;99.90;;;;;;5011905;28;20074;-85
2022/07/29 10:17:14;;;;;;;5.95;2.90;;;19.30;99.90;;;;;;5017164;28;20416;-84
2022/07/29 10:19:41;;;;;;;7.03;2.70;;;19.40;99.90;;;;;;5005787;28;20133;-84
2022/07/29 10:22:08;;;;;;;6.25;3.03;;;19.60;99.90;;;;;;5009542;28;20137;-85
2022/07/29 10:24:35;;;;;;;3.70;2.83;;;19.80;99.90;;;;;;5012043;28;20050;-84
2022/07/29 10:27:01;;;;;;;4.30;2.97;;;19.90;99.90;;;;;;5012621;28;20495;-84
2022/07/29 10:29:28;;;;;;;4.47;2.75;;;20.10;99.90;;;;;;4994686;28;20053;-85
2022/07/29 10:32:07;;;;;;;5.60;3.20;;;20.70;99.90;;;;;;5013012;28;20046;-83
2022/07/29 10:34:57;;;;;;;6.38;2.88;;;20.30;99.90;;;;;;5011324;28;20120;-86
2022/07/29 10:37:25;;;;;;;3.72;2.80;;;20.40;99.90;;;;;;5012384;28;20202;-87
2022/07/29 10:39:54;;;;;;;5.25;2.90;;;20.40;99.90;;;;;;5013076;28;20136;-87
2022/07/29 10:42:23;;;;;;;4.65;3.28;;;20.50;99.90;;;;;;4992187;28;20129;-85
2022/07/29 10:44:48;;;;;;;3.47;2.80;;;20.30;99.90;;;;;;5027190;28;20056;-83
2022/07/29 10:47:25;;;;;;;4.32;2.65;;;20.70;99.90;;;;;;5018574;28;20045;-84
2022/07/29 10:49:58;;;;;;;6.47;3.25;;;21.00;99.90;;;;;;5025448;28;20072;-84
2022/07/29 10:52:27;;;;;;;4.28;2.80;;;21.00;99.90;;;;;;5025010;28;20050;-85
2022/07/29 10:54:53;;;;;;;6.00;2.67;;;21.30;99.90;;;;;;5023420;28;20113;-84
2022/07/29 10:57:25;;;;;;;5.72;2.92;;;21.30;99.90;;;;;;5011721;28;20054;-85
2022/07/29 11:00:13;;;;;;;6.60;3.50;;;21.50;99.90;;;;;;5027416;28;20053;-84
2022/07/29 11:02:44;;;;;;;3.97;2.90;;;21.40;99.90;;;;;;5005786;28;20050;-86
2022/07/29 11:05:18;;;;;;;4.57;3.15;;;21.30;99.90;;;;;;5024273;28;20105;-83
2022/07/29 11:08:12;;;;;;;5.97;3.00;;;21.10;99.90;;;;;;5024354;28;20410;-85
2022/07/29 11:10:39;;;;;;;4.18;3.40;;;21.10;99.90;;;;;;5024718;28;20137;-84
2022/07/29 11:13:04;;;;;;;5.25;3.30;;;21.00;99.90;;;;;;5022027;28;20057;-84
2022/07/29 11:15:32;;;;;;;8.85;3.60;;;21.10;99.90;;;;;;5020066;28;20042;-86
2022/07/29 11:18:00;;;;;;;4.20;3.28;;;21.10;99.90;;;;;;5018129;28;20713;-88
2022/07/29 11:20:49;;;;;;;3.80;3.40;;;20.80;99.90;;;;;;5022102;28;20062;-86
2022/07/29 11:23:29;;;;;;;6.88;3.50;;;20.80;99.90;;;;;;5020144;28;20482;-85
2022/07/29 11:26:12;;;;;;;6.50;3.60;;;20.70;99.90;;;;;;5030941;28;20085;-85
2022/07/29 11:28:54;;;;;;;5.30;2.88;;;21.00;99.90;;;;;;5051721;28;20038;-90
2022/07/29 11:31:42;;;;;;;6.45;3.40;;;21.00;99.90;;;;;;5038757;28;20041;-88
2022/07/29 11:34:29;;;;;;;4.55;3.05;;;21.00;99.90;;;;;;5033717;28;20078;-86
2022/07/29 11:37:16;;;;;;;5.50;2.95;;;20.90;99.90;;;;;;5025035;28;20049;-85
2022/07/29 11:39:42;;;;;;;5.15;2.83;;;20.90;99.90;;;;;;5016435;28;20065;-84
2022/07/29 11:42:19;;;;;;;5.65;3.45;;;20.80;99.90;;;;;;5016745;28;20042;-84
2022/07/29 11:45:02;;;;;;;7.07;3.35;;;20.80;99.90;;;;;;5016049;28;20100;-85
2022/07/29 11:47:28;;;;;;;8.77;3.05;;;20.90;99.90;;;;;;5031521;28;20042;-85
2022/07/29 11:49:56;;;;;;;7.00;2.92;;;20.90;99.90;;;;;;5017052;28;20042;-88
2022/07/29 11:52:22;;;;;;;4.95;2.67;;;21.10;99.90;;;;;;5017074;28;20050;-84
2022/07/29 11:54:49;;;;;;;4.60;3.05;;;21.50;99.90;;;;;;5020003;28;20049;-84
2022/07/29 11:57:18;;;;;;;6.88;3.10;;;21.80;99.90;;;;;;5015605;28;20050;-85
2022/07/29 11:59:44;;;;;;;4.53;2.80;;;21.60;99.90;;;;;;5030928;28;20038;-85
2022/07/29 12:02:11;;;;;;;5.45;3.20;;;21.70;99.90;;;;;;5015950;28;20144;-84
2022/07/29 12:04:54;;;;;;;4.20;2.88;;;21.90;99.90;;;;;;5017134;28;20038;-85
2022/07/29 12:07:30;;;;;;;4.50;2.80;;;21.50;99.90;;;;;;5032214;28;20089;-84
2022/07/29 12:09:56;;;;;;;9.23;3.00;;;21.70;99.90;;;;;;5013925;28;20038;-86
2022/07/29 12:12:21;;;;;;;4.55;2.60;;;21.70;99.90;;;;;;5014855;28;20517;-85
2022/07/29 12:14:47;;;;;;;5.55;3.00;;;22.00;99.90;;;;;;5014322;28;20057;-86
2022/07/29 12:17:29;;;;;;;6.30;3.15;;;22.20;99.90;;;;;;4999313;28;20124;-87
2022/07/29 12:19:55;;;;;;;6.82;2.90;;;22.10;99.90;;;;;;5031184;28;20405;-85
2022/07/29 12:22:27;;;;;;;7.35;3.00;;;21.90;99.90;;;;;;5016267;28;20057;-87
2022/07/29 12:24:54;;;;;;;5.63;3.15;;;22.20;99.90;;;;;;5018039;28;20053;-85
2022/07/29 12:27:19;;;;;;;6.00;3.28;;;22.30;99.90;;;;;;5018041;28;20058;-87
2022/07/29 12:29:56;;;;;;;5.65;2.88;;;22.40;99.90;;;;;;5014316;28;20060;-87
2022/07/29 12:32:22;;;;;;;3.40;3.00;;;22.30;99.90;;;;;;4994528;28;20498;-88
2022/07/29 12:34:47;;;;;;;4.22;2.63;;;22.40;99.90;;;;;;5014509;28;20049;-87
2022/07/29 12:37:13;;;;;;;5.18;2.70;;;22.40;99.90;;;;;;4997811;28;20108;-89
2022/07/29 12:39:39;;;;;;;3.58;2.50;;;22.20;99.90;;;;;;5014771;28;20053;-86
2022/07/29 12:42:14;;;;;;;8.82;2.97;;;22.00;99.90;;;;;;5015320;28;20080;-87
2022/07/29 12:44:48;;;;;;;6.35;3.10;;;22.10;99.90;;;;;;4993029;28;20050;-88
2022/07/29 12:47:14;;;;;;;6.00;3.30;;;22.40;99.90;;;;;;5037109;28;20062;-92
2022/07/29 12:49:40;;;;;;;6.32;3.20;;;22.20;99.90;;;;;;5022479;28;20038;-89
2022/07/29 12:52:28;;;;;;;8.95;3.22;;;22.40;99.90;;;;;;5037503;28;20036;-93
2022/07/29 12:54:54;;;;;;;5.60;3.30;;;22.50;99.90;;;;;;5032346;28;20081;-91
2022/07/29 12:57:20;;;;;;;5.13;3.22;;;22.90;99.90;;;;;;5036436;28;20029;-94
2022/07/29 12:59:59;;;;;;;4.45;2.95;;;22.90;99.90;;;;;;5036006;28;20033;-91